Clipper Imabari — 3ERD7 — position and weather

sailwx.info

Track history (hours):
 
Tides and Currents Weather Stations Pressure Air Temp Water Temp Dewpoint Dewpoint Depression Visibility Wind Speed Wind Dir Waves Ship Positions

Clipper Imabari

Last reported at 2015-Feb-19 02:11 UTC. Time now 2015-Mar-04 22:47 UTC.
Position N 46°13' E 030°54'.
Warning: this ship's position is 13 days out of date.

Length 169 m; draft 5.8 m.

Type: Cargo ship. MMSI: 370016000.

Date/timePositionNaut miles runAvg speedWind from/ knotsBaromVisibWave heightAir tempDewpointWater temp
2015-Feb-19 02:11N 46°13' E 030°54'1010.0
2015-Feb-19 01:10N 46°20' E 031°04'  
2015-Feb-14 15:33N 41°32' E 029°23'1312.8
2015-Feb-14 14:33N 41°21' E 029°15'  
2015-Feb-12 09:19N 37°52' E 025°38'810.9
2015-Feb-12 08:33N 37°44' E 025°42'1110.5
2015-Feb-12 07:28N 37°34' E 025°47'910.2
2015-Feb-12 06:33N 37°25' E 025°52'3012.4
2015-Feb-12 04:07N 36°59' E 026°10'2211.6
2015-Feb-12 02:14N 36°44' E 026°30'  
Track history (hours):
 
Tides and Currents Weather Stations Pressure Air Temp Water Temp Dewpoint Dewpoint Depression Visibility Wind Speed Wind Dir Waves Ship Positions

Clipper Imabari

Last reported at 2015-Feb-19 02:11 UTC. Time now 2015-Mar-04 22:47 UTC.
Position N 46°13' E 030°54'.
Warning: this ship's position is 13 days out of date.

Length 169 m; draft 5.8 m.

Type: Cargo ship. MMSI: 370016000.

Date/timePositionNaut miles runAvg speedWind from/ knotsBaromVisibWave heightAir tempDewpointWater temp
2015-Feb-19 02:11N 46°13' E 030°54'1010.0
2015-Feb-19 01:10N 46°20' E 031°04'  
2015-Feb-14 15:33N 41°32' E 029°23'1312.8
2015-Feb-14 14:33N 41°21' E 029°15'  
2015-Feb-12 09:19N 37°52' E 025°38'810.9
2015-Feb-12 08:33N 37°44' E 025°42'1110.5
2015-Feb-12 07:28N 37°34' E 025°47'910.2
2015-Feb-12 06:33N 37°25' E 025°52'3012.4
2015-Feb-12 04:07N 36°59' E 026°10'2211.6
2015-Feb-12 02:14N 36°44' E 026°30'  

Dump ship's entire track history